sensor_id;sensor_type;location;lat;lon;timestamp;pressure;altitude;pressure_sealevel;temperature;humidity
10881;BME280;5493;48.884;8.338;2022-07-10T00:00:07;100901.53;;;21.43;100.00
10881;BME280;5493;48.884;8.338;2022-07-10T00:02:35;100895.47;;;21.56;100.00
10881;BME280;5493;48.884;8.338;2022-07-10T00:05:02;100894.41;;;21.37;100.00
10881;BME280;5493;48.884;8.338;2022-07-10T00:07:29;100888.38;;;21.40;100.00
10881;BME280;5493;48.884;8.338;2022-07-10T00:09:56;100887.28;;;21.26;100.00
10881;BME280;5493;48.884;8.338;2022-07-10T00:12:22;100887.56;;;21.20;100.00
10881;BME280;5493;48.884;8.338;2022-07-10T00:14:49;100886.75;;;21.14;100.00
10881;BME280;5493;48.884;8.338;2022-07-10T00:17:15;100884.56;;;21.16;100.00
10881;BME280;5493;48.884;8.338;2022-07-10T00:19:43;100889.47;;;21.24;100.00
10881;BME280;5493;48.884;8.338;2022-07-10T00:22:10;100894.41;;;21.27;100.00
10881;BME280;5493;48.884;8.338;2022-07-10T00:24:36;100893.06;;;21.30;100.00
10881;BME280;5493;48.884;8.338;2022-07-10T00:27:04;100887.00;;;21.07;100.00
10881;BME280;5493;48.884;8.338;2022-07-10T00:29:30;100877.38;;;21.10;100.00
10881;BME280;5493;48.884;8.338;2022-07-10T00:31:57;100883.16;;;21.08;100.00
10881;BME280;5493;48.884;8.338;2022-07-10T00:34:23;100878.50;;;21.04;100.00
10881;BME280;5493;48.884;8.338;2022-07-10T00:36:51;100882.88;;;21.10;100.00
10881;BME280;5493;48.884;8.338;2022-07-10T00:39:18;100875.72;;;20.99;100.00
10881;BME280;5493;48.884;8.338;2022-07-10T00:41:44;100872.72;;;21.00;100.00
10881;BME280;5493;48.884;8.338;2022-07-10T00:44:11;100874.69;;;21.30;100.00
10881;BME280;5493;48.884;8.338;2022-07-10T00:46:37;100876.59;;;21.25;100.00
10881;BME280;5493;48.884;8.338;2022-07-10T00:49:05;100882.63;;;21.27;100.00
10881;BME280;5493;48.884;8.338;2022-07-10T00:51:32;100870.53;;;21.28;100.00
10881;BME280;5493;48.884;8.338;2022-07-10T00:54:00;100868.31;;;21.09;100.00
10881;BME280;5493;48.884;8.338;2022-07-10T00:56:27;100871.91;;;21.05;100.00
10881;BME280;5493;48.884;8.338;2022-07-10T00:58:55;100863.66;;;21.10;100.00
10881;BME280;5493;48.884;8.338;2022-07-10T01:01:21;100864.28;;;21.12;100.00
10881;BME280;5493;48.884;8.338;2022-07-10T01:03:49;100865.31;;;20.86;100.00
10881;BME280;5493;48.884;8.338;2022-07-10T01:06:16;100865.63;;;20.94;100.00
10881;BME280;5493;48.884;8.338;2022-07-10T01:08:44;100873.28;;;20.92;100.00
10881;BME280;5493;48.884;8.338;2022-07-10T01:11:13;100865.59;;;20.84;100.00
10881;BME280;5493;48.884;8.338;2022-07-10T01:13:39;100869.69;;;20.67;100.00
10881;BME280;5493;48.884;8.338;2022-07-10T01:16:07;100879.84;;;20.81;100.00
10881;BME280;5493;48.884;8.338;2022-07-10T01:18:33;100875.44;;;20.70;100.00
10881;BME280;5493;48.884;8.338;2022-07-10T01:21:01;100877.88;;;20.56;100.00
10881;BME280;5493;48.884;8.338;2022-07-10T01:23:27;100867.19;;;20.50;100.00
10881;BME280;5493;48.884;8.338;2022-07-10T01:25:54;100875.97;;;20.47;100.00
10881;BME280;5493;48.884;8.338;2022-07-10T01:28:21;100883.34;;;20.51;100.00
10881;BME280;5493;48.884;8.338;2022-07-10T01:30:48;100882.31;;;20.78;100.00
10881;BME280;5493;48.884;8.338;2022-07-10T01:33:14;100888.56;;;20.43;100.00
10881;BME280;5493;48.884;8.338;2022-07-10T01:35:41;100891.31;;;20.53;100.00
10881;BME280;5493;48.884;8.338;2022-07-10T01:38:09;100892.94;;;20.49;100.00
10881;BME280;5493;48.884;8.338;2022-07-10T01:40:35;100895.38;;;20.40;100.00
10881;BME280;5493;48.884;8.338;2022-07-10T01:43:02;100890.53;;;20.68;100.00
10881;BME280;5493;48.884;8.338;2022-07-10T01:45:28;100897.84;;;20.42;100.00
10881;BME280;5493;48.884;8.338;2022-07-10T01:47:55;100901.19;;;20.54;100.00
10881;BME280;5493;48.884;8.338;2022-07-10T01:50:22;100898.22;;;20.76;100.00
10881;BME280;5493;48.884;8.338;2022-07-10T01:52:48;100902.78;;;20.40;100.00
10881;BME280;5493;48.884;8.338;2022-07-10T01:55:16;100910.31;;;20.12;100.00
10881;BME280;5493;48.884;8.338;2022-07-10T01:57:43;100905.34;;;19.99;100.00
10881;BME280;5493;48.884;8.338;2022-07-10T02:00:10;100910.28;;;20.02;100.00
10881;BME280;5493;48.884;8.338;2022-07-10T02:02:37;100908.31;;;19.98;100.00
10881;BME280;5493;48.884;8.338;2022-07-10T02:05:04;100910.69;;;19.79;100.00
10881;BME280;5493;48.884;8.338;2022-07-10T02:07:30;100906.06;;;19.85;100.00
10881;BME280;5493;48.884;8.338;2022-07-10T02:09:57;100912.44;;;19.95;100.00
10881;BME280;5493;48.884;8.338;2022-07-10T02:12:25;100904.94;;;19.81;100.00
10881;BME280;5493;48.884;8.338;2022-07-10T02:14:51;100907.31;;;19.62;100.00
10881;BME280;5493;48.884;8.338;2022-07-10T02:17:18;100918.53;;;19.65;100.00
10881;BME280;5493;48.884;8.338;2022-07-10T02:19:44;100919.16;;;19.78;100.00
10881;BME280;5493;48.884;8.338;2022-07-10T02:22:11;100921.69;;;19.42;100.00
10881;BME280;5493;48.884;8.338;2022-07-10T02:24:37;100927.41;;;19.83;100.00
10881;BME280;5493;48.884;8.338;2022-07-10T02:27:04;100927.16;;;19.84;100.00
10881;BME280;5493;48.884;8.338;2022-07-10T02:29:32;100927.53;;;19.61;100.00
10881;BME280;5493;48.884;8.338;2022-07-10T02:31:58;100925.72;;;19.40;100.00
10881;BME280;5493;48.884;8.338;2022-07-10T02:34:25;100926.63;;;19.50;100.00
10881;BME280;5493;48.884;8.338;2022-07-10T02:36:52;100924.34;;;19.37;100.00
10881;BME280;5493;48.884;8.338;2022-07-10T02:39:18;100923.59;;;19.47;100.00
10881;BME280;5493;48.884;8.338;2022-07-10T02:41:47;100922.84;;;19.25;100.00
10881;BME280;5493;48.884;8.338;2022-07-10T02:44:13;100918.63;;;19.39;100.00
10881;BME280;5493;48.884;8.338;2022-07-10T02:46:41;100929.50;;;19.34;100.00
10881;BME280;5493;48.884;8.338;2022-07-10T02:49:08;100923.06;;;19.13;100.00
10881;BME280;5493;48.884;8.338;2022-07-10T02:51:34;100925.56;;;19.20;100.00
10881;BME280;5493;48.884;8.338;2022-07-10T02:54:00;100924.22;;;19.22;100.00
10881;BME280;5493;48.884;8.338;2022-07-10T02:56:27;100921.91;;;19.09;100.00
10881;BME280;5493;48.884;8.338;2022-07-10T02:58:54;100923.75;;;19.03;100.00
10881;BME280;5493;48.884;8.338;2022-07-10T03:01:20;100927.31;;;19.36;100.00
10881;BME280;5493;48.884;8.338;2022-07-10T03:03:48;100929.34;;;19.13;100.00
10881;BME280;5493;48.884;8.338;2022-07-10T03:06:15;100937.03;;;19.22;100.00
10881;BME280;5493;48.884;8.338;2022-07-10T03:08:41;100932.75;;;18.99;100.00
10881;BME280;5493;48.884;8.338;2022-07-10T03:11:07;100933.63;;;19.04;100.00
10881;BME280;5493;48.884;8.338;2022-07-10T03:13:34;100929.50;;;19.02;100.00
10881;BME280;5493;48.884;8.338;2022-07-10T03:16:00;100931.25;;;19.13;100.00
10881;BME280;5493;48.884;8.338;2022-07-10T03:18:28;100927.31;;;18.99;100.00
10881;BME280;5493;48.884;8.338;2022-07-10T03:20:55;100932.81;;;18.77;100.00
10881;BME280;5493;48.884;8.338;2022-07-10T03:23:22;100936.47;;;18.61;100.00
10881;BME280;5493;48.884;8.338;2022-07-10T03:25:49;100929.66;;;18.63;100.00
10881;BME280;5493;48.884;8.338;2022-07-10T03:28:15;100939.91;;;18.51;100.00
10881;BME280;5493;48.884;8.338;2022-07-10T03:30:42;100936.47;;;18.61;100.00
10881;BME280;5493;48.884;8.338;2022-07-10T03:33:08;100943.53;;;18.57;100.00
10881;BME280;5493;48.884;8.338;2022-07-10T03:35:35;100941.84;;;18.56;100.00
10881;BME280;5493;48.884;8.338;2022-07-10T03:38:02;100948.09;;;18.51;100.00
10881;BME280;5493;48.884;8.338;2022-07-10T03:40:29;100939.94;;;18.35;100.00
10881;BME280;5493;48.884;8.338;2022-07-10T03:42:55;100948.22;;;18.18;100.00
10881;BME280;5493;48.884;8.338;2022-07-10T03:45:22;100942.88;;;18.72;100.00
10881;BME280;5493;48.884;8.338;2022-07-10T03:47:48;100946.09;;;18.47;100.00
10881;BME280;5493;48.884;8.338;2022-07-10T03:50:15;100937.47;;;18.77;100.00
10881;BME280;5493;48.884;8.338;2022-07-10T03:52:41;100942.31;;;18.70;100.00
10881;BME280;5493;48.884;8.338;2022-07-10T03:55:10;100939.56;;;18.70;100.00
10881;BME280;5493;48.884;8.338;2022-07-10T03:57:37;100950.75;;;18.68;100.00
10881;BME280;5493;48.884;8.338;2022-07-10T04:00:23;100955.47;;;18.51;100.00
10881;BME280;5493;48.884;8.338;2022-07-10T04:02:56;100949.00;;;18.84;100.00
10881;BME280;5493;48.884;8.338;2022-07-10T04:05:23;100952.13;;;18.71;100.00
10881;BME280;5493;48.884;8.338;2022-07-10T04:07:50;100945.66;;;18.77;100.00
10881;BME280;5493;48.884;8.338;2022-07-10T04:10:18;100954.44;;;18.57;100.00
10881;BME280;5493;48.884;8.338;2022-07-10T04:12:45;100951.13;;;18.77;100.00
10881;BME280;5493;48.884;8.338;2022-07-10T04:15:11;100957.22;;;18.84;100.00
10881;BME280;5493;48.884;8.338;2022-07-10T04:17:38;100946.81;;;18.86;100.00
10881;BME280;5493;48.884;8.338;2022-07-10T04:20:06;100955.44;;;18.99;100.00
10881;BME280;5493;48.884;8.338;2022-07-10T04:22:32;100961.78;;;18.78;100.00
10881;BME280;5493;48.884;8.338;2022-07-10T04:24:59;100952.25;;;18.81;100.00
10881;BME280;5493;48.884;8.338;2022-07-10T04:27:27;100950.84;;;18.78;100.00
10881;BME280;5493;48.884;8.338;2022-07-10T04:29:53;100951.06;;;18.98;100.00
10881;BME280;5493;48.884;8.338;2022-07-10T04:32:20;100946.78;;;19.07;100.00
10881;BME280;5493;48.884;8.338;2022-07-10T04:34:46;100948.19;;;18.83;100.00
10881;BME280;5493;48.884;8.338;2022-07-10T04:37:13;100952.19;;;18.76;100.00
10881;BME280;5493;48.884;8.338;2022-07-10T04:39:40;100961.50;;;18.53;100.00
10881;BME280;5493;48.884;8.338;2022-07-10T04:42:07;100951.50;;;18.63;100.00
10881;BME280;5493;48.884;8.338;2022-07-10T04:44:36;100948.59;;;18.70;100.00
10881;BME280;5493;48.884;8.338;2022-07-10T04:47:03;100952.00;;;19.09;100.00
10881;BME280;5493;48.884;8.338;2022-07-10T04:49:30;100948.63;;;19.60;100.00
10881;BME280;5493;48.884;8.338;2022-07-10T04:51:57;100949.22;;;19.73;100.00
10881;BME280;5493;48.884;8.338;2022-07-10T04:54:24;100959.47;;;19.50;100.00
10881;BME280;5493;48.884;8.338;2022-07-10T04:56:50;100958.16;;;19.58;100.00
10881;BME280;5493;48.884;8.338;2022-07-10T04:59:17;100960.81;;;19.48;100.00
10881;BME280;5493;48.884;8.338;2022-07-10T05:01:45;100964.16;;;19.28;100.00
10881;BME280;5493;48.884;8.338;2022-07-10T05:04:12;100974.00;;;19.24;100.00
10881;BME280;5493;48.884;8.338;2022-07-10T05:06:38;100961.97;;;19.25;100.00
10881;BME280;5493;48.884;8.338;2022-07-10T05:09:06;100962.88;;;19.04;100.00
10881;BME280;5493;48.884;8.338;2022-07-10T05:11:32;100969.16;;;19.31;100.00
10881;BME280;5493;48.884;8.338;2022-07-10T05:13:59;100972.66;;;19.27;100.00
10881;BME280;5493;48.884;8.338;2022-07-10T05:16:25;100974.31;;;19.01;100.00
10881;BME280;5493;48.884;8.338;2022-07-10T05:18:53;100972.97;;;19.03;100.00
10881;BME280;5493;48.884;8.338;2022-07-10T05:21:20;100973.47;;;19.27;100.00
10881;BME280;5493;48.884;8.338;2022-07-10T05:23:46;100973.25;;;19.02;100.00
10881;BME280;5493;48.884;8.338;2022-07-10T05:26:13;100969.56;;;19.18;100.00
10881;BME280;5493;48.884;8.338;2022-07-10T05:28:39;100969.38;;;19.30;100.00
10881;BME280;5493;48.884;8.338;2022-07-10T05:31:05;100982.25;;;19.29;100.00
10881;BME280;5493;48.884;8.338;2022-07-10T05:33:32;100984.38;;;18.95;100.00
10881;BME280;5493;48.884;8.338;2022-07-10T05:36:00;100981.06;;;19.20;100.00
10881;BME280;5493;48.884;8.338;2022-07-10T05:38:27;100986.25;;;19.22;100.00
10881;BME280;5493;48.884;8.338;2022-07-10T05:40:53;100986.47;;;19.15;100.00
10881;BME280;5493;48.884;8.338;2022-07-10T05:43:20;100983.28;;;18.96;100.00
10881;BME280;5493;48.884;8.338;2022-07-10T05:45:46;100976.59;;;19.41;100.00
10881;BME280;5493;48.884;8.338;2022-07-10T05:48:14;100980.88;;;19.32;100.00
10881;BME280;5493;48.884;8.338;2022-07-10T05:50:40;100973.94;;;19.19;100.00
10881;BME280;5493;48.884;8.338;2022-07-10T05:53:08;100975.97;;;19.02;100.00
10881;BME280;5493;48.884;8.338;2022-07-10T05:55:35;100976.47;;;18.72;100.00
10881;BME280;5493;48.884;8.338;2022-07-10T05:58:01;100982.50;;;18.52;100.00
10881;BME280;5493;48.884;8.338;2022-07-10T06:00:28;100987.03;;;18.63;100.00
10881;BME280;5493;48.884;8.338;2022-07-10T06:02:54;100985.34;;;18.84;100.00
10881;BME280;5493;48.884;8.338;2022-07-10T06:05:21;100987.06;;;18.90;100.00
10881;BME280;5493;48.884;8.338;2022-07-10T06:07:48;100992.31;;;18.97;100.00
10881;BME280;5493;48.884;8.338;2022-07-10T06:10:16;100988.78;;;18.75;100.00
10881;BME280;5493;48.884;8.338;2022-07-10T06:12:42;100993.91;;;18.66;100.00
10881;BME280;5493;48.884;8.338;2022-07-10T06:15:09;100998.38;;;18.99;100.00
10881;BME280;5493;48.884;8.338;2022-07-10T06:17:36;101003.44;;;18.90;100.00
10881;BME280;5493;48.884;8.338;2022-07-10T06:20:03;101008.19;;;18.51;100.00
10881;BME280;5493;48.884;8.338;2022-07-10T06:22:30;101007.72;;;18.81;100.00
10881;BME280;5493;48.884;8.338;2022-07-10T06:24:57;101010.13;;;18.56;100.00
10881;BME280;5493;48.884;8.338;2022-07-10T06:27:25;101014.28;;;18.80;100.00
10881;BME280;5493;48.884;8.338;2022-07-10T06:29:51;101016.75;;;19.08;100.00
10881;BME280;5493;48.884;8.338;2022-07-10T06:32:18;101016.25;;;19.11;100.00
10881;BME280;5493;48.884;8.338;2022-07-10T06:34:44;101020.66;;;19.17;100.00
10881;BME280;5493;48.884;8.338;2022-07-10T06:37:11;101023.22;;;19.24;100.00
10881;BME280;5493;48.884;8.338;2022-07-10T06:39:38;101028.59;;;18.92;100.00
10881;BME280;5493;48.884;8.338;2022-07-10T06:42:05;101022.84;;;19.15;100.00
10881;BME280;5493;48.884;8.338;2022-07-10T06:44:33;101027.38;;;19.05;100.00
10881;BME280;5493;48.884;8.338;2022-07-10T06:47:00;101029.56;;;19.30;100.00
10881;BME280;5493;48.884;8.338;2022-07-10T06:49:45;101027.28;;;19.22;100.00
10881;BME280;5493;48.884;8.338;2022-07-10T06:52:12;101021.78;;;19.43;100.00
10881;BME280;5493;48.884;8.338;2022-07-10T06:54:39;101024.50;;;19.16;100.00
10881;BME280;5493;48.884;8.338;2022-07-10T06:57:06;101020.22;;;19.26;100.00
10881;BME280;5493;48.884;8.338;2022-07-10T06:59:34;101024.34;;;19.01;100.00
10881;BME280;5493;48.884;8.338;2022-07-10T07:02:00;101024.16;;;19.35;100.00
10881;BME280;5493;48.884;8.338;2022-07-10T07:04:27;101025.06;;;19.18;100.00
10881;BME280;5493;48.884;8.338;2022-07-10T07:06:53;101026.19;;;19.23;100.00
10881;BME280;5493;48.884;8.338;2022-07-10T07:09:20;101023.63;;;19.11;100.00
10881;BME280;5493;48.884;8.338;2022-07-10T07:11:46;101029.41;;;19.14;100.00
10881;BME280;5493;48.884;8.338;2022-07-10T07:14:13;101030.25;;;19.74;100.00
10881;BME280;5493;48.884;8.338;2022-07-10T07:16:41;101037.06;;;19.17;100.00
10881;BME280;5493;48.884;8.338;2022-07-10T07:19:10;101029.50;;;19.25;100.00
10881;BME280;5493;48.884;8.338;2022-07-10T07:21:37;101029.63;;;19.35;100.00
10881;BME280;5493;48.884;8.338;2022-07-10T07:24:22;101029.22;;;20.22;100.00
10881;BME280;5493;48.884;8.338;2022-07-10T07:26:48;101034.44;;;19.49;100.00
10881;BME280;5493;48.884;8.338;2022-07-10T07:29:15;101039.00;;;19.71;100.00
10881;BME280;5493;48.884;8.338;2022-07-10T07:31:44;101037.94;;;19.77;100.00
10881;BME280;5493;48.884;8.338;2022-07-10T07:34:11;101038.53;;;19.52;100.00
10881;BME280;5493;48.884;8.338;2022-07-10T07:36:37;101031.59;;;19.71;100.00
10881;BME280;5493;48.884;8.338;2022-07-10T07:39:04;101032.09;;;19.68;100.00
10881;BME280;5493;48.884;8.338;2022-07-10T07:41:31;101034.06;;;20.09;100.00
10881;BME280;5493;48.884;8.338;2022-07-10T07:43:57;101024.66;;;19.95;100.00
10881;BME280;5493;48.884;8.338;2022-07-10T07:46:24;101034.59;;;20.11;100.00
10881;BME280;5493;48.884;8.338;2022-07-10T07:48:52;101044.22;;;19.77;100.00
10881;BME280;5493;48.884;8.338;2022-07-10T07:51:18;101043.41;;;20.19;100.00
10881;BME280;5493;48.884;8.338;2022-07-10T07:53:45;101040.63;;;20.08;100.00
10881;BME280;5493;48.884;8.338;2022-07-10T07:56:11;101036.31;;;20.18;100.00
10881;BME280;5493;48.884;8.338;2022-07-10T07:58:37;101042.81;;;20.11;100.00
10881;BME280;5493;48.884;8.338;2022-07-10T08:01:04;101041.56;;;19.87;100.00
10881;BME280;5493;48.884;8.338;2022-07-10T08:03:30;101040.00;;;20.38;100.00
10881;BME280;5493;48.884;8.338;2022-07-10T08:05:58;101037.25;;;19.59;100.00
10881;BME280;5493;48.884;8.338;2022-07-10T08:08:25;101025.06;;;20.19;100.00
10881;BME280;5493;48.884;8.338;2022-07-10T08:10:51;101029.00;;;20.33;100.00
10881;BME280;5493;48.884;8.338;2022-07-10T08:13:18;101025.66;;;20.21;100.00
10881;BME280;5493;48.884;8.338;2022-07-10T08:15:44;101025.34;;;20.18;100.00
10881;BME280;5493;48.884;8.338;2022-07-10T08:18:11;101017.50;;;19.89;100.00
10881;BME280;5493;48.884;8.338;2022-07-10T08:20:37;101018.81;;;19.82;100.00
10881;BME280;5493;48.884;8.338;2022-07-10T08:23:05;101027.63;;;19.89;100.00
10881;BME280;5493;48.884;8.338;2022-07-10T08:25:32;101031.75;;;19.91;100.00
10881;BME280;5493;48.884;8.338;2022-07-10T08:28:01;101026.91;;;20.03;100.00
10881;BME280;5493;48.884;8.338;2022-07-10T08:30:28;101030.25;;;20.15;100.00
10881;BME280;5493;48.884;8.338;2022-07-10T08:32:55;101037.69;;;19.83;100.00
10881;BME280;5493;48.884;8.338;2022-07-10T08:35:22;101029.84;;;19.97;100.00
10881;BME280;5493;48.884;8.338;2022-07-10T08:37:48;101026.31;;;19.96;100.00
10881;BME280;5493;48.884;8.338;2022-07-10T08:40:17;101013.81;;;20.15;100.00
10881;BME280;5493;48.884;8.338;2022-07-10T08:42:44;101017.97;;;20.18;100.00
10881;BME280;5493;48.884;8.338;2022-07-10T08:45:11;101019.31;;;20.68;100.00
10881;BME280;5493;48.884;8.338;2022-07-10T08:47:38;101024.25;;;20.71;100.00
10881;BME280;5493;48.884;8.338;2022-07-10T08:50:15;101026.22;;;20.75;100.00
10881;BME280;5493;48.884;8.338;2022-07-10T08:52:43;101028.25;;;20.48;100.00
10881;BME280;5493;48.884;8.338;2022-07-10T08:55:18;101023.78;;;20.89;100.00
10881;BME280;5493;48.884;8.338;2022-07-10T08:57:47;101019.47;;;20.41;100.00
10881;BME280;5493;48.884;8.338;2022-07-10T09:00:15;101022.09;;;20.73;100.00
10881;BME280;5493;48.884;8.338;2022-07-10T09:02:42;101013.78;;;21.70;100.00
10881;BME280;5493;48.884;8.338;2022-07-10T09:05:08;101008.56;;;21.43;100.00
10881;BME280;5493;48.884;8.338;2022-07-10T09:07:35;101006.38;;;21.55;100.00
10881;BME280;5493;48.884;8.338;2022-07-10T09:10:06;101005.28;;;23.25;100.00
10881;BME280;5493;48.884;8.338;2022-07-10T09:12:51;101006.84;;;23.99;100.00
10881;BME280;5493;48.884;8.338;2022-07-10T09:15:19;101009.22;;;23.82;100.00
10881;BME280;5493;48.884;8.338;2022-07-10T09:17:51;101003.94;;;24.62;97.22
10881;BME280;5493;48.884;8.338;2022-07-10T09:20:30;101003.06;;;25.27;96.89
10881;BME280;5493;48.884;8.338;2022-07-10T09:22:58;101020.28;;;25.19;99.03
10881;BME280;5493;48.884;8.338;2022-07-10T09:25:32;101009.69;;;25.08;92.77
10881;BME280;5493;48.884;8.338;2022-07-10T09:28:01;101012.50;;;26.37;93.65
10881;BME280;5493;48.884;8.338;2022-07-10T09:30:32;101011.34;;;25.78;92.96
10881;BME280;5493;48.884;8.338;2022-07-10T09:33:17;101018.47;;;25.66;89.52
10881;BME280;5493;48.884;8.338;2022-07-10T09:36:03;101014.38;;;25.63;92.54
10881;BME280;5493;48.884;8.338;2022-07-10T09:38:53;101019.00;;;25.68;84.84
10881;BME280;5493;48.884;8.338;2022-07-10T09:41:22;101010.63;;;26.19;86.74
10881;BME280;5493;48.884;8.338;2022-07-10T09:43:52;101009.50;;;26.20;88.48
10881;BME280;5493;48.884;8.338;2022-07-10T09:46:21;101021.88;;;25.07;88.43
10881;BME280;5493;48.884;8.338;2022-07-10T09:48:48;101008.13;;;26.17;88.59
10881;BME280;5493;48.884;8.338;2022-07-10T09:51:29;101017.34;;;26.81;84.30
10881;BME280;5493;48.884;8.338;2022-07-10T09:53:57;101016.63;;;25.93;79.66
10881;BME280;5493;48.884;8.338;2022-07-10T09:56:26;101008.25;;;25.80;78.67
10881;BME280;5493;48.884;8.338;2022-07-10T09:58:59;101000.81;;;25.80;77.70
10881;BME280;5493;48.884;8.338;2022-07-10T10:01:27;101010.59;;;25.73;76.66
10881;BME280;5493;48.884;8.338;2022-07-10T10:03:56;100994.09;;;26.96;66.30
10881;BME280;5493;48.884;8.338;2022-07-10T10:06:26;100997.41;;;26.57;73.03
10881;BME280;5493;48.884;8.338;2022-07-10T10:08:56;100990.94;;;26.88;78.55
10881;BME280;5493;48.884;8.338;2022-07-10T10:11:26;100995.41;;;24.63;75.37
10881;BME280;5493;48.884;8.338;2022-07-10T10:13:55;100996.13;;;26.08;79.22
10881;BME280;5493;48.884;8.338;2022-07-10T10:16:22;100995.09;;;25.39;85.78
10881;BME280;5493;48.884;8.338;2022-07-10T10:18:50;100986.38;;;25.83;85.41
10881;BME280;5493;48.884;8.338;2022-07-10T10:21:35;100990.75;;;25.71;88.76
10881;BME280;5493;48.884;8.338;2022-07-10T10:24:02;100984.38;;;25.57;81.03
10881;BME280;5493;48.884;8.338;2022-07-10T10:26:29;100990.56;;;25.48;76.06
10881;BME280;5493;48.884;8.338;2022-07-10T10:28:59;100986.72;;;26.77;85.21
10881;BME280;5493;48.884;8.338;2022-07-10T10:31:26;100986.16;;;26.53;78.20
10881;BME280;5493;48.884;8.338;2022-07-10T10:33:54;100973.31;;;26.16;73.00
10881;BME280;5493;48.884;8.338;2022-07-10T10:36:43;100982.56;;;27.16;62.57
10881;BME280;5493;48.884;8.338;2022-07-10T10:39:12;100976.59;;;26.73;62.33
10881;BME280;5493;48.884;8.338;2022-07-10T10:41:40;100976.31;;;27.10;68.68
10881;BME280;5493;48.884;8.338;2022-07-10T10:44:24;100976.47;;;27.50;67.08
10881;BME280;5493;48.884;8.338;2022-07-10T10:46:56;100971.03;;;27.22;62.82
10881;BME280;5493;48.884;8.338;2022-07-10T10:50:00;100970.97;;;27.14;58.69
10881;BME280;5493;48.884;8.338;2022-07-10T10:52:27;100963.75;;;27.26;52.26
10881;BME280;5493;48.884;8.338;2022-07-10T10:55:01;100965.84;;;28.05;52.77
10881;BME280;5493;48.884;8.338;2022-07-10T10:57:40;100964.81;;;28.23;57.25
10881;BME280;5493;48.884;8.338;2022-07-10T11:00:29;100975.94;;;27.92;53.42
10881;BME280;5493;48.884;8.338;2022-07-10T11:03:17;100968.16;;;28.42;46.39
10881;BME280;5493;48.884;8.338;2022-07-10T11:05:45;100973.91;;;28.63;48.35
10881;BME280;5493;48.884;8.338;2022-07-10T11:08:12;100981.13;;;27.63;48.62
10881;BME280;5493;48.884;8.338;2022-07-10T11:10:41;100979.03;;;27.68;52.01
10881;BME280;5493;48.884;8.338;2022-07-10T11:13:08;100965.88;;;27.29;55.07
10881;BME280;5493;48.884;8.338;2022-07-10T11:15:38;100973.13;;;26.26;48.19
10881;BME280;5493;48.884;8.338;2022-07-10T11:18:08;100966.09;;;27.55;49.83
10881;BME280;5493;48.884;8.338;2022-07-10T11:20:36;100964.31;;;27.59;49.13
10881;BME280;5493;48.884;8.338;2022-07-10T11:23:34;100960.59;;;29.08;46.67
10881;BME280;5493;48.884;8.338;2022-07-10T11:26:05;100954.72;;;29.18;48.23
10881;BME280;5493;48.884;8.338;2022-07-10T11:28:45;100959.09;;;27.58;44.75
10881;BME280;5493;48.884;8.338;2022-07-10T11:31:15;100957.09;;;27.27;44.62
10881;BME280;5493;48.884;8.338;2022-07-10T11:33:43;100956.97;;;28.73;44.64
10881;BME280;5493;48.884;8.338;2022-07-10T11:36:12;100952.19;;;26.75;45.51
10881;BME280;5493;48.884;8.338;2022-07-10T11:38:39;100950.91;;;27.83;46.72
10881;BME280;5493;48.884;8.338;2022-07-10T11:41:12;100947.97;;;28.76;44.67
10881;BME280;5493;48.884;8.338;2022-07-10T11:43:46;100942.53;;;27.44;44.44
10881;BME280;5493;48.884;8.338;2022-07-10T11:46:12;100949.94;;;27.35;51.24
10881;BME280;5493;48.884;8.338;2022-07-10T11:48:41;100954.78;;;26.17;50.03
10881;BME280;5493;48.884;8.338;2022-07-10T11:51:19;100949.22;;;28.35;46.06
10881;BME280;5493;48.884;8.338;2022-07-10T11:53:55;100945.28;;;27.00;50.60
10881;BME280;5493;48.884;8.338;2022-07-10T11:56:21;100950.28;;;28.17;45.96
10881;BME280;5493;48.884;8.338;2022-07-10T11:58:55;100944.44;;;27.88;46.55
10881;BME280;5493;48.884;8.338;2022-07-10T12:01:21;100937.28;;;28.35;50.09
10881;BME280;5493;48.884;8.338;2022-07-10T12:03:55;100948.53;;;28.21;45.47
10881;BME280;5493;48.884;8.338;2022-07-10T12:06:24;100945.31;;;28.45;46.92
10881;BME280;5493;48.884;8.338;2022-07-10T12:08:51;100948.94;;;27.53;43.32
10881;BME280;5493;48.884;8.338;2022-07-10T12:11:19;100951.66;;;27.45;49.97
10881;BME280;5493;48.884;8.338;2022-07-10T12:13:47;100960.88;;;26.82;51.29
10881;BME280;5493;48.884;8.338;2022-07-10T12:16:14;100948.22;;;26.67;50.72
10881;BME280;5493;48.884;8.338;2022-07-10T12:18:41;100943.47;;;27.62;51.08
10881;BME280;5493;48.884;8.338;2022-07-10T12:21:10;100940.13;;;26.57;52.88
10881;BME280;5493;48.884;8.338;2022-07-10T12:23:39;100942.06;;;26.84;49.36
10881;BME280;5493;48.884;8.338;2022-07-10T12:26:08;100936.44;;;26.62;52.96
10881;BME280;5493;48.884;8.338;2022-07-10T12:28:48;100934.06;;;26.69;50.44
10881;BME280;5493;48.884;8.338;2022-07-10T12:31:20;100937.59;;;26.20;54.63
10881;BME280;5493;48.884;8.338;2022-07-10T12:33:50;100932.44;;;25.72;53.65
10881;BME280;5493;48.884;8.338;2022-07-10T12:36:18;100936.97;;;25.50;58.84
10881;BME280;5493;48.884;8.338;2022-07-10T12:38:53;100947.22;;;26.99;52.92
10881;BME280;5493;48.884;8.338;2022-07-10T12:41:20;100933.25;;;26.68;51.93
10881;BME280;5493;48.884;8.338;2022-07-10T12:43:50;100934.84;;;26.97;54.40
10881;BME280;5493;48.884;8.338;2022-07-10T12:46:17;100928.25;;;28.12;49.46
10881;BME280;5493;48.884;8.338;2022-07-10T12:49:01;100930.56;;;27.57;48.71
10881;BME280;5493;48.884;8.338;2022-07-10T12:51:30;100932.84;;;27.55;53.88
10881;BME280;5493;48.884;8.338;2022-07-10T12:53:58;100939.41;;;27.68;47.84
10881;BME280;5493;48.884;8.338;2022-07-10T12:56:30;100939.66;;;27.49;51.68
10881;BME280;5493;48.884;8.338;2022-07-10T12:58:57;100934.66;;;26.79;50.02